Lucia, California
Current Conditions -  °F | °C
As of 11:54 AM on Saturday 25 Oct 2014 (Local Time) from KMRY Reporting Station
Broken Clouds Broken Clouds  
Wind Chill: 67°   Ceiling: 9500
Heat Index: 67°   Visibility: 10mi
Dew Point: 59°   Wind: 8mph
Humidity: 76%   Direction: 200°SSW
Pressure: 30.1"   Gusts: NA
Location:  36.2518°N, 121.704°W
Report Text: KMRY 251854Z 20007KT 10SM SCT043 BKN095 19/15 A3010 RMK AO2 SLP204 T01940150
Loading
Personal Weather Stations






























Interactive Weather Map New forecast layout! Learn more

10-Day Weather Forecast

Advertisements
Track Severe Weather on mobile